PWSweather.com
Personal Weather Stations
Station Observations

SkegnessGB

Lat: 53.147585, Lon: 0.345774

Elevation: 18

Station Type: Fine Offset WH3080

http://www.skegnessweather.info/

Latest ConditionsUpdated 6:50:00 PM GMT Saturday, Jul 21, 2018
Currently Today's Max Today's Min Today's Average
Temperature 66.4°F19.1°C 74.3°F23.5°C 58.5°F14.7°C 66.5°F19.2°C
Dew Point 61.4°F16.3°C 63.9°F17.7°C 58.1°F14.5°C 61.0°F16.1°C
Winds 4.3 mph N6.9 kmh N 6.3 mph -10.1 kmh - - 2.6 mph 4.2 kmh
Wind Gusts 4.9 mph7.9 kmh 8.4 mph13.5 kmh - -
Humidity 84% 100% 68% 83%
Pressure 29.98 in1015.2 mb 29.98 in1015.2 mb 29.93 in1013.5 mb -
Hour Temp Dew Point Humidity Winds Wind Gusts Pressure Precip Precip Rate Daily Precip Total
06:50 PM 66.4°F19.1°C 61.4°F16.3°C 84% 4.3 mph N6.9 kmh N 4.9 mph7.9 kmh 29.98 in1015.2 mb 0.00 in0.0 mm 0.00 in0.0 mm 0.00 in0.0 mm
06:40 PM 66.7°F19.3°C 61.7°F16.5°C 84% 4.5 mph N7.2 kmh N 5.9 mph9.5 kmh 29.98 in1015.2 mb 0.00 in0.0 mm 0.00 in0.0 mm 0.00 in0.0 mm
06:30 PM 67.1°F19.5°C 61.8°F16.6°C 83% 5.0 mph NNE8.0 kmh NNE 6.6 mph10.6 kmh 29.98 in1015.2 mb 0.00 in0.0 mm 0.00 in0.0 mm 0.00 in0.0 mm
06:20 PM 67.5°F19.7°C 62.5°F16.9°C 84% 3.7 mph N6.0 kmh N 4.9 mph7.9 kmh 29.98 in1015.2 mb 0.00 in0.0 mm 0.00 in0.0 mm 0.00 in0.0 mm
06:10 PM 68.0°F20.0°C 62.6°F17.0°C 83% 2.9 mph N4.7 kmh N 4.2 mph6.8 kmh 29.98 in1015.2 mb 0.00 in0.0 mm 0.00 in0.0 mm 0.00 in0.0 mm
06:00 PM 68.9°F20.5°C 63.2°F17.3°C 82% 3.7 mph N6.0 kmh N 4.2 mph6.8 kmh 29.97 in1014.9 mb 0.00 in0.0 mm 0.00 in0.0 mm 0.00 in0.0 mm
05:50 PM 69.4°F20.8°C 63.0°F17.2°C 80% 2.7 mph N4.3 kmh N 3.4 mph5.5 kmh 29.97 in1014.9 mb 0.00 in0.0 mm 0.00 in0.0 mm 0.00 in0.0 mm
05:40 PM 70.7°F21.5°C 63.5°F17.5°C 78% 2.1 mph NNE3.4 kmh NNE 4.2 mph6.8 kmh 29.96 in1014.6 mb 0.00 in0.0 mm 0.00 in0.0 mm 0.00 in0.0 mm
05:30 PM 71.8°F22.1°C 62.7°F17.1°C 73% 2.0 mph NW3.2 kmh NW 3.4 mph5.5 kmh 29.96 in1014.6 mb 0.00 in0.0 mm 0.00 in0.0 mm 0.00 in0.0 mm
05:20 PM 72.3°F22.4°C 63.2°F17.3°C 73% 3.0 mph NW4.8 kmh NW 3.4 mph5.5 kmh 29.96 in1014.6 mb 0.00 in0.0 mm 0.00 in0.0 mm 0.00 in0.0 mm
05:10 PM 72.0°F22.2°C 62.8°F17.1°C 73% 3.3 mph N5.3 kmh N 4.9 mph7.9 kmh 29.96 in1014.6 mb 0.00 in0.0 mm 0.00 in0.0 mm 0.00 in0.0 mm
05:00 PM 72.3°F22.4°C 63.2°F17.3°C 73% 2.0 mph NW3.2 kmh NW 3.4 mph5.5 kmh 29.96 in1014.6 mb 0.00 in0.0 mm 0.00 in0.0 mm 0.00 in0.0 mm
04:50 PM 71.1°F21.7°C 63.9°F17.7°C 78% 2.0 mph NNW3.2 kmh NNW 4.2 mph6.8 kmh 29.96 in1014.6 mb 0.00 in0.0 mm 0.00 in0.0 mm 0.00 in0.0 mm
04:40 PM 70.3°F21.3°C 63.2°F17.3°C 78% 3.0 mph NNE4.8 kmh NNE 3.4 mph5.5 kmh 29.96 in1014.6 mb 0.00 in0.0 mm 0.00 in0.0 mm 0.00 in0.0 mm
04:30 PM 70.9°F21.6°C 62.9°F17.2°C 76% 3.5 mph NNE5.6 kmh NNE 4.2 mph6.8 kmh 29.97 in1014.9 mb 0.00 in0.0 mm 0.00 in0.0 mm 0.00 in0.0 mm
04:20 PM 71.2°F21.8°C 63.3°F17.4°C 76% 2.9 mph N4.7 kmh N 4.9 mph7.9 kmh 29.97 in1014.9 mb 0.00 in0.0 mm 0.00 in0.0 mm 0.00 in0.0 mm
04:10 PM 71.6°F22.0°C 62.5°F16.9°C 73% 3.2 mph NNE5.1 kmh NNE 4.9 mph7.9 kmh 29.97 in1014.9 mb 0.00 in0.0 mm 0.00 in0.0 mm 0.00 in0.0 mm
04:00 PM 70.7°F21.5°C 63.1°F17.3°C 77% 4.2 mph NNE6.8 kmh NNE 4.9 mph7.9 kmh 29.97 in1014.9 mb 0.00 in0.0 mm 0.00 in0.0 mm 0.00 in0.0 mm
03:50 PM 70.9°F21.6°C 62.6°F17.0°C 75% 2.4 mph NNW3.9 kmh NNW 3.4 mph5.5 kmh 29.97 in1014.9 mb 0.00 in0.0 mm 0.00 in0.0 mm 0.00 in0.0 mm
03:40 PM 71.4°F21.9°C 63.1°F17.3°C 75% 3.1 mph NNW5.0 kmh NNW 4.2 mph6.8 kmh 29.98 in1015.2 mb 0.00 in0.0 mm 0.00 in0.0 mm 0.00 in0.0 mm
03:30 PM 71.1°F21.7°C 63.1°F17.3°C 76% 3.3 mph WNW5.3 kmh WNW 4.2 mph6.8 kmh 29.98 in1015.2 mb 0.00 in0.0 mm 0.00 in0.0 mm 0.00 in0.0 mm
03:20 PM 71.6°F22.0°C 62.1°F16.7°C 72% 2.7 mph NW4.3 kmh NW 4.2 mph6.8 kmh 29.98 in1015.2 mb 0.00 in0.0 mm 0.00 in0.0 mm 0.00 in0.0 mm
03:10 PM 72.3°F22.4°C 63.2°F17.3°C 73% 3.2 mph NNE5.1 kmh NNE 5.9 mph9.5 kmh 29.98 in1015.2 mb 0.00 in0.0 mm 0.00 in0.0 mm 0.00 in0.0 mm
03:00 PM 71.4°F21.9°C 62.7°F17.1°C 74% 4.5 mph NNE7.2 kmh NNE 5.9 mph9.5 kmh 29.98 in1015.2 mb 0.00 in0.0 mm 0.00 in0.0 mm 0.00 in0.0 mm
02:50 PM 72.3°F22.4°C 62.8°F17.1°C 72% 3.1 mph N5.0 kmh N 5.9 mph9.5 kmh 29.98 in1015.2 mb 0.00 in0.0 mm 0.00 in0.0 mm 0.00 in0.0 mm
02:40 PM 73.4°F23.0°C 63.0°F17.2°C 70% 3.2 mph NNE5.1 kmh NNE 4.9 mph7.9 kmh 29.98 in1015.2 mb 0.00 in0.0 mm 0.00 in0.0 mm 0.00 in0.0 mm
02:30 PM 73.2°F22.9°C 62.8°F17.1°C 70% 4.4 mph N7.1 kmh N 5.9 mph9.5 kmh 29.98 in1015.2 mb 0.00 in0.0 mm 0.00 in0.0 mm 0.00 in0.0 mm
02:20 PM 72.5°F22.5°C 62.6°F17.0°C 71% 5.3 mph N8.5 kmh N 6.6 mph10.6 kmh 29.97 in1014.9 mb 0.00 in0.0 mm 0.00 in0.0 mm 0.00 in0.0 mm
02:10 PM 73.2°F22.9°C 62.8°F17.1°C 70% 4.5 mph NE7.2 kmh NE 6.6 mph10.6 kmh 29.98 in1015.2 mb 0.00 in0.0 mm 0.00 in0.0 mm 0.00 in0.0 mm
02:00 PM 72.9°F22.7°C 62.5°F16.9°C 70% 3.4 mph NNE5.5 kmh NNE 6.6 mph10.6 kmh 29.98 in1015.2 mb 0.00 in0.0 mm 0.00 in0.0 mm 0.00 in0.0 mm
01:50 PM 72.3°F22.4°C 62.8°F17.1°C 72% 4.7 mph N7.6 kmh N 7.6 mph12.2 kmh 29.98 in1015.2 mb 0.00 in0.0 mm 0.00 in0.0 mm 0.00 in0.0 mm
01:40 PM 72.1°F22.3°C 61.8°F16.6°C 70% 4.7 mph N7.6 kmh N 6.6 mph10.6 kmh 29.98 in1015.2 mb 0.00 in0.0 mm 0.00 in0.0 mm 0.00 in0.0 mm
01:30 PM 71.8°F22.1°C 62.3°F16.8°C 72% 4.4 mph NNW7.1 kmh NNW 6.6 mph10.6 kmh 29.98 in1015.2 mb 0.00 in0.0 mm 0.00 in0.0 mm 0.00 in0.0 mm
01:20 PM 71.4°F21.9°C 63.1°F17.3°C 75% 5.8 mph N9.3 kmh N 6.6 mph10.6 kmh 29.98 in1015.2 mb 0.00 in0.0 mm 0.00 in0.0 mm 0.00 in0.0 mm
01:10 PM 72.0°F22.2°C 62.4°F16.9°C 72% 5.5 mph NNW8.9 kmh NNW 8.4 mph13.5 kmh 29.98 in1015.2 mb 0.00 in0.0 mm 0.00 in0.0 mm 0.00 in0.0 mm
01:00 PM 72.5°F22.5°C 63.0°F17.2°C 72% 4.8 mph N7.7 kmh N 5.9 mph9.5 kmh 29.97 in1014.9 mb 0.00 in0.0 mm 0.00 in0.0 mm 0.00 in0.0 mm
12:50 PM 72.7°F22.6°C 62.7°F17.1°C 71% 4.3 mph NNE6.9 kmh NNE 5.9 mph9.5 kmh 29.98 in1015.2 mb 0.00 in0.0 mm 0.00 in0.0 mm 0.00 in0.0 mm
12:40 PM 72.1°F22.3°C 62.6°F17.0°C 72% 4.6 mph NNE7.4 kmh NNE 6.6 mph10.6 kmh 29.98 in1015.2 mb 0.00 in0.0 mm 0.00 in0.0 mm 0.00 in0.0 mm
12:30 PM 71.8°F22.1°C 62.3°F16.8°C 72% 5.1 mph N8.2 kmh N 5.9 mph9.5 kmh 29.98 in1015.2 mb 0.00 in0.0 mm 0.00 in0.0 mm 0.00 in0.0 mm
12:20 PM 72.3°F22.4°C 62.4°F16.9°C 71% 3.8 mph N6.1 kmh N 5.9 mph9.5 kmh 29.98 in1015.2 mb 0.00 in0.0 mm 0.00 in0.0 mm 0.00 in0.0 mm
12:10 PM 73.4°F23.0°C 62.6°F17.0°C 69% 6.3 mph N10.1 kmh N 5.9 mph9.5 kmh 29.98 in1015.2 mb 0.00 in0.0 mm 0.00 in0.0 mm 0.00 in0.0 mm
12:00 PM 74.3°F23.5°C 63.1°F17.3°C 68% 4.6 mph NE7.4 kmh NE 6.6 mph10.6 kmh 29.98 in1015.2 mb 0.00 in0.0 mm 0.00 in0.0 mm 0.00 in0.0 mm
11:50 AM 73.6°F23.1°C 62.8°F17.1°C 69% 5.3 mph ENE8.5 kmh ENE 5.9 mph9.5 kmh 29.98 in1015.2 mb 0.00 in0.0 mm 0.00 in0.0 mm 0.00 in0.0 mm
11:40 AM 73.9°F23.3°C 63.1°F17.3°C 69% 3.7 mph N6.0 kmh N 4.9 mph7.9 kmh 29.98 in1015.2 mb 0.00 in0.0 mm 0.00 in0.0 mm 0.00 in0.0 mm
11:30 AM 73.9°F23.3°C 62.7°F17.1°C 68% 3.2 mph NW5.1 kmh NW 6.6 mph10.6 kmh 29.98 in1015.2 mb 0.00 in0.0 mm 0.00 in0.0 mm 0.00 in0.0 mm
11:20 AM 72.0°F22.2°C 62.4°F16.9°C 72% 4.1 mph NE6.6 kmh NE 6.6 mph10.6 kmh 29.98 in1015.2 mb 0.00 in0.0 mm 0.00 in0.0 mm 0.00 in0.0 mm
11:10 AM 72.3°F22.4°C 62.0°F16.7°C 70% 5.0 mph NE8.0 kmh NE 5.9 mph9.5 kmh 29.98 in1015.2 mb 0.00 in0.0 mm 0.00 in0.0 mm 0.00 in0.0 mm
11:00 AM 72.7°F22.6°C 62.7°F17.1°C 71% 4.2 mph N6.8 kmh N 4.9 mph7.9 kmh 29.98 in1015.2 mb 0.00 in0.0 mm 0.00 in0.0 mm 0.00 in0.0 mm
10:50 AM 72.9°F22.7°C 62.1°F16.7°C 69% 5.2 mph NE8.4 kmh NE 5.9 mph9.5 kmh 29.98 in1015.2 mb 0.00 in0.0 mm 0.00 in0.0 mm 0.00 in0.0 mm
10:40 AM 72.5°F22.5°C 63.0°F17.2°C 72% 3.0 mph N4.8 kmh N 4.9 mph7.9 kmh 29.98 in1015.2 mb 0.00 in0.0 mm 0.00 in0.0 mm 0.00 in0.0 mm
10:30 AM 72.1°F22.3°C 62.6°F17.0°C 72% 4.6 mph NNE7.4 kmh NNE 6.6 mph10.6 kmh 29.98 in1015.2 mb 0.00 in0.0 mm 0.00 in0.0 mm 0.00 in0.0 mm
10:20 AM 71.1°F21.7°C 62.7°F17.1°C 75% 4.6 mph N7.4 kmh N 4.9 mph7.9 kmh 29.98 in1015.2 mb 0.00 in0.0 mm 0.00 in0.0 mm 0.00 in0.0 mm
10:10 AM 71.8°F22.1°C 62.3°F16.8°C 72% 2.3 mph N3.7 kmh N 4.9 mph7.9 kmh 29.98 in1015.2 mb 0.00 in0.0 mm 0.00 in0.0 mm 0.00 in0.0 mm
10:00 AM 71.4°F21.9°C 63.1°F17.3°C 75% 5.4 mph NNE8.7 kmh NNE 7.6 mph12.2 kmh 29.98 in1015.2 mb 0.00 in0.0 mm 0.00 in0.0 mm 0.00 in0.0 mm
09:50 AM 72.1°F22.3°C 62.6°F17.0°C 72% 3.2 mph N5.1 kmh N 4.9 mph7.9 kmh 29.97 in1014.9 mb 0.00 in0.0 mm 0.00 in0.0 mm 0.00 in0.0 mm
09:40 AM 71.4°F21.9°C 63.1°F17.3°C 75% 3.4 mph N5.5 kmh N 5.9 mph9.5 kmh 29.97 in1014.9 mb 0.00 in0.0 mm 0.00 in0.0 mm 0.00 in0.0 mm
09:30 AM 71.6°F22.0°C 62.1°F16.7°C 72% 3.1 mph NE5.0 kmh NE 5.9 mph9.5 kmh 29.97 in1014.9 mb 0.00 in0.0 mm 0.00 in0.0 mm 0.00 in0.0 mm
09:20 AM 71.2°F21.8°C 61.7°F16.5°C 72% 2.4 mph SSE3.9 kmh SSE 3.4 mph5.5 kmh 29.97 in1014.9 mb 0.00 in0.0 mm 0.00 in0.0 mm 0.00 in0.0 mm
09:10 AM 71.2°F21.8°C 62.1°F16.7°C 73% 2.0 mph NNE3.2 kmh NNE 2.5 mph4.0 kmh 29.97 in1014.9 mb 0.00 in0.0 mm 0.00 in0.0 mm 0.00 in0.0 mm
09:00 AM 70.9°F21.6°C 62.2°F16.8°C 74% 3.3 mph N5.3 kmh N 5.9 mph9.5 kmh 29.97 in1014.9 mb 0.00 in0.0 mm 0.00 in0.0 mm 0.00 in0.0 mm
08:50 AM 69.8°F21.0°C 61.1°F16.2°C 74% 4.3 mph E6.9 kmh E 5.9 mph9.5 kmh 29.97 in1014.9 mb 0.00 in0.0 mm 0.00 in0.0 mm 0.00 in0.0 mm
08:40 AM 68.7°F20.4°C 60.8°F16.0°C 76% 4.9 mph SE7.9 kmh SE 5.9 mph9.5 kmh 29.97 in1014.9 mb 0.00 in0.0 mm 0.00 in0.0 mm 0.00 in0.0 mm
08:30 AM 67.8°F19.9°C 60.3°F15.7°C 77% 3.6 mph NNE5.8 kmh NNE 5.9 mph9.5 kmh 29.97 in1014.9 mb 0.00 in0.0 mm 0.00 in0.0 mm 0.00 in0.0 mm
08:20 AM 66.7°F19.3°C 60.0°F15.6°C 79% 4.4 mph N7.1 kmh N 4.9 mph7.9 kmh 29.97 in1014.9 mb 0.00 in0.0 mm 0.00 in0.0 mm 0.00 in0.0 mm
08:10 AM 66.0°F18.9°C 59.7°F15.4°C 80% 2.6 mph N4.2 kmh N 4.2 mph6.8 kmh 29.97 in1014.9 mb 0.00 in0.0 mm 0.00 in0.0 mm 0.00 in0.0 mm
08:00 AM 65.3°F18.5°C 59.7°F15.4°C 82% 1.8 mph NE2.9 kmh NE 3.4 mph5.5 kmh 29.96 in1014.6 mb 0.00 in0.0 mm 0.00 in0.0 mm 0.00 in0.0 mm
07:50 AM 64.8°F18.2°C 59.1°F15.1°C 82% 1.3 mph N2.1 kmh N 3.4 mph5.5 kmh 29.97 in1014.9 mb 0.00 in0.0 mm 0.00 in0.0 mm 0.00 in0.0 mm
07:40 AM 64.2°F17.9°C 59.3°F15.2°C 84% 1.7 mph NNE2.7 kmh NNE 3.4 mph5.5 kmh 29.97 in1014.9 mb 0.00 in0.0 mm 0.00 in0.0 mm 0.00 in0.0 mm
07:30 AM 63.3°F17.4°C 59.1°F15.1°C 86% 1.8 mph NNE2.9 kmh NNE 2.5 mph4.0 kmh 29.97 in1014.9 mb 0.00 in0.0 mm 0.00 in0.0 mm 0.00 in0.0 mm
07:20 AM 62.2°F16.8°C 59.3°F15.2°C 90% 1.7 mph NE2.7 kmh NE 3.4 mph5.5 kmh 29.96 in1014.6 mb 0.00 in0.0 mm 0.00 in0.0 mm 0.00 in0.0 mm
07:10 AM 61.9°F16.6°C 59.2°F15.1°C 91% 2.5 mph NE4.0 kmh NE 3.4 mph5.5 kmh 29.96 in1014.6 mb 0.00 in0.0 mm 0.00 in0.0 mm 0.00 in0.0 mm
07:00 AM 61.7°F16.5°C 59.4°F15.2°C 92% 1.2 mph N1.9 kmh N 2.5 mph4.0 kmh 29.96 in1014.6 mb 0.00 in0.0 mm 0.00 in0.0 mm 0.00 in0.0 mm
06:50 AM 61.2°F16.2°C 58.8°F14.9°C 92% 0.7 mph E1.1 kmh E 1.7 mph2.7 kmh 29.96 in1014.6 mb 0.00 in0.0 mm 0.00 in0.0 mm 0.00 in0.0 mm
06:40 AM 60.8°F16.0°C 58.5°F14.7°C 92% 1.2 mph NNE1.9 kmh NNE 3.4 mph5.5 kmh 29.96 in1014.6 mb 0.00 in0.0 mm 0.00 in0.0 mm 0.00 in0.0 mm
06:30 AM 60.6°F15.9°C 58.3°F14.6°C 92% 1.9 mph NNE3.1 kmh NNE 3.4 mph5.5 kmh 29.96 in1014.6 mb 0.00 in0.0 mm 0.00 in0.0 mm 0.00 in0.0 mm
06:20 AM 60.8°F16.0°C 58.5°F14.7°C 92% 1.4 mph NNE2.3 kmh NNE 3.4 mph5.5 kmh 29.96 in1014.6 mb 0.00 in0.0 mm 0.00 in0.0 mm 0.00 in0.0 mm
06:10 AM 60.8°F16.0°C 58.2°F14.6°C 91% 4.8 mph NE7.7 kmh NE 4.2 mph6.8 kmh 29.96 in1014.6 mb 0.00 in0.0 mm 0.00 in0.0 mm 0.00 in0.0 mm
06:00 AM 60.6°F15.9°C 58.3°F14.6°C 92% 2.1 mph NE3.4 kmh NE 4.2 mph6.8 kmh 29.96 in1014.6 mb 0.00 in0.0 mm 0.00 in0.0 mm 0.00 in0.0 mm
05:50 AM 60.4°F15.8°C 58.1°F14.5°C 92% 3.2 mph NNE5.1 kmh NNE 4.2 mph6.8 kmh 29.96 in1014.6 mb 0.00 in0.0 mm 0.00 in0.0 mm 0.00 in0.0 mm
05:40 AM 60.6°F15.9°C 58.9°F14.9°C 94% 2.4 mph NE3.9 kmh NE 4.9 mph7.9 kmh 29.96 in1014.6 mb 0.00 in0.0 mm 0.00 in0.0 mm 0.00 in0.0 mm
05:30 AM 60.4°F15.8°C 59.0°F15.0°C 95% 2.2 mph NE3.5 kmh NE 3.4 mph5.5 kmh 29.96 in1014.6 mb 0.00 in0.0 mm 0.00 in0.0 mm 0.00 in0.0 mm
05:20 AM 60.1°F15.6°C 58.9°F14.9°C 96% 1.5 mph NE2.4 kmh NE 3.4 mph5.5 kmh 29.95 in1014.2 mb 0.00 in0.0 mm 0.00 in0.0 mm 0.00 in0.0 mm
05:10 AM 59.7°F15.4°C 59.4°F15.2°C 99% 0.6 mph NE1.0 kmh NE 1.7 mph2.7 kmh 29.96 in1014.6 mb 0.00 in0.0 mm 0.00 in0.0 mm 0.00 in0.0 mm
05:00 AM 59.4°F15.2°C 59.4°F15.2°C 100% 1.1 mph NNW1.8 kmh NNW 2.5 mph4.0 kmh 29.95 in1014.2 mb 0.00 in0.0 mm 0.00 in0.0 mm 0.00 in0.0 mm
04:50 AM 59.0°F15.0°C 59.0°F15.0°C 100% 0.2 mph NNE0.3 kmh NNE 1.7 mph2.7 kmh 29.95 in1014.2 mb 0.00 in0.0 mm 0.00 in0.0 mm 0.00 in0.0 mm
04:40 AM 58.8°F14.9°C 58.8°F14.9°C 100% Calm Calm 0.7 mph1.1 kmh 29.95 in1014.2 mb 0.00 in0.0 mm 0.00 in0.0 mm 0.00 in0.0 mm
04:30 AM 58.8°F14.9°C 58.8°F14.9°C 100% 0.3 mph NW0.5 kmh NW 1.7 mph2.7 kmh 29.95 in1014.2 mb 0.00 in0.0 mm 0.00 in0.0 mm 0.00 in0.0 mm
04:20 AM 58.5°F14.7°C 58.5°F14.7°C 100% 0.8 mph SSW1.3 kmh SSW 1.7 mph2.7 kmh 29.95 in1014.2 mb 0.00 in0.0 mm 0.00 in0.0 mm 0.00 in0.0 mm
04:10 AM 58.5°F14.7°C 58.5°F14.7°C 100% Calm Calm 0.7 mph1.1 kmh 29.95 in1014.2 mb 0.00 in0.0 mm 0.00 in0.0 mm 0.00 in0.0 mm
04:00 AM 58.6°F14.8°C 58.6°F14.8°C 100% Calm Calm 0.7 mph1.1 kmh 29.94 in1013.9 mb 0.00 in0.0 mm 0.00 in0.0 mm 0.00 in0.0 mm
03:50 AM 58.6°F14.8°C 58.6°F14.8°C 100% 0.5 mph WSW0.8 kmh WSW 1.7 mph2.7 kmh 29.94 in1013.9 mb 0.00 in0.0 mm 0.00 in0.0 mm 0.00 in0.0 mm
03:40 AM 58.8°F14.9°C 58.8°F14.9°C 100% 0.2 mph S0.3 kmh S 1.7 mph2.7 kmh 29.94 in1013.9 mb 0.00 in0.0 mm 0.00 in0.0 mm 0.00 in0.0 mm
03:30 AM 58.8°F14.9°C 58.8°F14.9°C 100% 0.5 mph N0.8 kmh N 1.7 mph2.7 kmh 29.95 in1014.2 mb 0.00 in0.0 mm 0.00 in0.0 mm 0.00 in0.0 mm
03:20 AM 59.0°F15.0°C 59.0°F15.0°C 100% 0.1 mph W0.2 kmh W 0.7 mph1.1 kmh 29.95 in1014.2 mb 0.00 in0.0 mm 0.00 in0.0 mm 0.00 in0.0 mm
03:10 AM 59.0°F15.0°C 59.0°F15.0°C 100% 0.5 mph NW0.8 kmh NW 1.7 mph2.7 kmh 29.95 in1014.2 mb 0.00 in0.0 mm 0.00 in0.0 mm 0.00 in0.0 mm
03:00 AM 59.2°F15.1°C 59.2°F15.1°C 100% 1.3 mph WSW2.1 kmh WSW 2.5 mph4.0 kmh 29.95 in1014.2 mb 0.00 in0.0 mm 0.00 in0.0 mm 0.00 in0.0 mm
02:50 AM 59.2°F15.1°C 59.2°F15.1°C 100% 0.4 mph ESE0.6 kmh ESE 1.7 mph2.7 kmh 29.95 in1014.2 mb 0.00 in0.0 mm 0.00 in0.0 mm 0.00 in0.0 mm
02:40 AM 59.2°F15.1°C 59.2°F15.1°C 100% 0.2 mph S0.3 kmh S 1.7 mph2.7 kmh 29.94 in1013.9 mb 0.00 in0.0 mm 0.00 in0.0 mm 0.00 in0.0 mm
02:30 AM 59.4°F15.2°C 59.4°F15.2°C 100% 0.4 mph WSW0.6 kmh WSW 1.7 mph2.7 kmh 29.94 in1013.9 mb 0.00 in0.0 mm 0.00 in0.0 mm 0.00 in0.0 mm
02:20 AM 59.4°F15.2°C 59.4°F15.2°C 100% 0.4 mph W0.6 kmh W 1.7 mph2.7 kmh 29.93 in1013.5 mb 0.00 in0.0 mm 0.00 in0.0 mm 0.00 in0.0 mm
02:10 AM 59.4°F15.2°C 59.1°F15.1°C 99% Calm Calm 0.7 mph1.1 kmh 29.93 in1013.5 mb 0.00 in0.0 mm 0.00 in0.0 mm 0.00 in0.0 mm
02:00 AM 59.4°F15.2°C 59.1°F15.1°C 99% 0.2 mph W0.3 kmh W 1.7 mph2.7 kmh 29.93 in1013.5 mb 0.00 in0.0 mm 0.00 in0.0 mm 0.00 in0.0 mm
01:50 AM 59.5°F15.3°C 59.3°F15.2°C 99% 0.6 mph W1.0 kmh W 1.7 mph2.7 kmh 29.93 in1013.5 mb 0.00 in0.0 mm 0.00 in0.0 mm 0.00 in0.0 mm
01:40 AM 59.5°F15.3°C 59.0°F15.0°C 98% 0.2 mph WSW0.3 kmh WSW 0.7 mph1.1 kmh 29.93 in1013.5 mb 0.00 in0.0 mm 0.00 in0.0 mm 0.00 in0.0 mm
01:30 AM 59.7°F15.4°C 59.2°F15.1°C 98% 0.9 mph SW1.4 kmh SW 2.5 mph4.0 kmh 29.94 in1013.9 mb 0.00 in0.0 mm 0.00 in0.0 mm 0.00 in0.0 mm
01:20 AM 59.7°F15.4°C 59.2°F15.1°C 98% 0.5 mph WSW0.8 kmh WSW 1.7 mph2.7 kmh 29.94 in1013.9 mb 0.00 in0.0 mm 0.00 in0.0 mm 0.00 in0.0 mm
01:10 AM 59.7°F15.4°C 58.9°F14.9°C 97% 0.3 mph ENE0.5 kmh ENE 1.7 mph2.7 kmh 29.94 in1013.9 mb 0.00 in0.0 mm 0.00 in0.0 mm 0.00 in0.0 mm
01:00 AM 59.9°F15.5°C 59.0°F15.0°C 97% Calm Calm 0.7 mph1.1 kmh 29.94 in1013.9 mb 0.00 in0.0 mm 0.00 in0.0 mm 0.00 in0.0 mm
12:50 AM 60.1°F15.6°C 59.2°F15.1°C 97% 0.2 mph NNW0.3 kmh NNW 1.7 mph2.7 kmh 29.94 in1013.9 mb 0.00 in0.0 mm 0.00 in0.0 mm 0.00 in0.0 mm
12:40 AM 60.1°F15.6°C 59.2°F15.1°C 97% Calm Calm 0.7 mph1.1 kmh 29.94 in1013.9 mb 0.00 in0.0 mm 0.00 in0.0 mm 0.00 in0.0 mm
12:30 AM 60.1°F15.6°C 59.2°F15.1°C 97% Calm Calm 0.7 mph1.1 kmh 29.95 in1014.2 mb 0.00 in0.0 mm 0.00 in0.0 mm 0.00 in0.0 mm
12:20 AM 60.1°F15.6°C 58.9°F14.9°C 96% Calm Calm 0.7 mph1.1 kmh 29.95 in1014.2 mb 0.00 in0.0 mm 0.00 in0.0 mm 0.00 in0.0 mm
12:10 AM 60.1°F15.6°C 58.9°F14.9°C 96% 0.8 mph NE1.3 kmh NE 1.7 mph2.7 kmh 29.95 in1014.2 mb 0.00 in0.0 mm 0.00 in0.0 mm 0.00 in0.0 mm
12:00 AM 60.1°F15.6°C 58.9°F14.9°C 96% 0.4 mph NE0.6 kmh NE 1.7 mph2.7 kmh 29.96 in1014.6 mb 0.00 in0.0 mm 0.00 in0.0 mm 0.00 in0.0 mm